createdAt,value
2018-10-16T00:00:17.864Z,8.23
2018-10-16T00:01:17.871Z,8.28
2018-10-16T00:02:17.870Z,8.2
2018-10-16T00:03:18.450Z,8.17
2018-10-16T00:04:17.910Z,8.18
2018-10-16T00:05:18.061Z,8.06
2018-10-16T00:06:17.951Z,8.03
2018-10-16T00:07:17.930Z,8.21
2018-10-16T00:08:18.068Z,8.16
2018-10-16T00:09:17.839Z,8.17
2018-10-16T00:10:18.073Z,8.15
2018-10-16T00:11:17.871Z,8.09
2018-10-16T00:12:18.075Z,8.06
2018-10-16T00:13:18.296Z,8.05
2018-10-16T00:14:17.761Z,8.15
2018-10-16T00:15:18.005Z,8.04
2018-10-16T00:16:18.002Z,8.04
2018-10-16T00:17:17.851Z,7.98
2018-10-16T00:18:18.263Z,8.01
2018-10-16T00:19:18.247Z,7.97
2018-10-16T00:20:17.878Z,7.97
2018-10-16T00:21:18.055Z,8.15
2018-10-16T00:22:17.936Z,8.07
2018-10-16T00:23:18.036Z,8.13
2018-10-16T00:24:18.055Z,8.14
2018-10-16T00:25:17.933Z,8.11
2018-10-16T00:26:17.916Z,8.1
2018-10-16T00:27:17.922Z,8.05
2018-10-16T00:28:18.013Z,8.05
2018-10-16T00:29:17.839Z,8.05
2018-10-16T00:30:17.900Z,8.09
2018-10-16T00:31:17.950Z,7.91
2018-10-16T00:32:17.854Z,8.14
2018-10-16T00:33:18.230Z,8.16
2018-10-16T00:34:18.002Z,8.15
2018-10-16T00:35:17.988Z,8.11
2018-10-16T00:36:17.815Z,8.18
2018-10-16T00:37:17.964Z,8.08
2018-10-16T00:38:18.033Z,8.09
2018-10-16T00:39:17.901Z,8.02
2018-10-16T00:40:18.209Z,8
2018-10-16T00:41:18.045Z,8.09
2018-10-16T00:42:18.264Z,8.07
2018-10-16T00:43:18.029Z,8.09
2018-10-16T00:44:17.919Z,8.04
2018-10-16T00:45:18.040Z,8.05
2018-10-16T00:46:17.828Z,8.03
2018-10-16T00:47:18.110Z,8.07
2018-10-16T00:48:17.925Z,7.99
2018-10-16T00:49:17.832Z,8.02
2018-10-16T00:50:18.484Z,8
2018-10-16T00:51:17.877Z,7.97
2018-10-16T00:52:17.872Z,8.01
2018-10-16T00:53:18.285Z,8
2018-10-16T00:54:18.051Z,8.01
2018-10-16T00:55:17.810Z,7.98
2018-10-16T00:56:17.921Z,7.99
2018-10-16T00:57:17.784Z,7.96
2018-10-16T00:58:17.944Z,7.94
2018-10-16T00:59:17.784Z,7.94
2018-10-16T01:00:17.742Z,7.91
2018-10-16T01:01:17.802Z,7.86
2018-10-16T01:02:17.855Z,7.89
2018-10-16T01:03:17.856Z,7.89
2018-10-16T01:04:17.875Z,7.89
2018-10-16T01:05:17.900Z,7.84
2018-10-16T01:06:17.891Z,7.84
2018-10-16T01:07:17.838Z,7.83
2018-10-16T01:08:17.992Z,7.82
2018-10-16T01:09:17.802Z,7.82
2018-10-16T01:10:17.799Z,7.82
2018-10-16T01:11:18.078Z,7.79
2018-10-16T01:12:17.872Z,7.8
2018-10-16T01:13:18.515Z,7.77
2018-10-16T01:14:17.830Z,7.73
2018-10-16T01:15:17.871Z,7.73
2018-10-16T01:16:17.943Z,7.71
2018-10-16T01:17:17.800Z,7.69
2018-10-16T01:18:17.796Z,7.72
2018-10-16T01:19:17.829Z,7.72
2018-10-16T01:20:17.754Z,7.72
2018-10-16T01:21:17.991Z,7.7
2018-10-16T01:22:17.959Z,7.65
2018-10-16T01:23:17.749Z,7.64
2018-10-16T01:24:17.795Z,7.63
2018-10-16T01:25:17.814Z,7.62
2018-10-16T01:26:17.842Z,7.58
2018-10-16T01:27:18.151Z,7.63
2018-10-16T01:28:17.903Z,7.56
2018-10-16T01:29:17.790Z,7.63
2018-10-16T01:30:17.850Z,7.57
2018-10-16T01:31:18.017Z,7.59
2018-10-16T01:32:18.082Z,7.6
2018-10-16T01:33:18.223Z,7.63
2018-10-16T01:34:17.790Z,7.59
2018-10-16T01:35:17.865Z,7.61
2018-10-16T01:36:17.777Z,7.59
2018-10-16T01:37:17.929Z,7.57
2018-10-16T01:38:17.952Z,7.51
2018-10-16T01:39:17.739Z,7.54
2018-10-16T01:40:17.830Z,7.51
2018-10-16T01:41:17.696Z,7.55
2018-10-16T01:42:17.849Z,7.47
2018-10-16T01:43:17.837Z,7.51
2018-10-16T01:44:17.903Z,7.46
2018-10-16T01:45:17.841Z,7.55
2018-10-16T01:46:17.855Z,7.45
2018-10-16T01:47:17.809Z,7.48
2018-10-16T01:48:17.721Z,7.56
2018-10-16T01:49:17.758Z,7.57
2018-10-16T01:50:17.829Z,7.52
2018-10-16T01:51:17.743Z,7.52
2018-10-16T01:52:17.870Z,7.52
2018-10-16T01:53:17.751Z,7.54
2018-10-16T01:54:17.764Z,7.56
2018-10-16T01:55:17.915Z,7.45
2018-10-16T01:56:17.838Z,7.52
2018-10-16T01:57:17.768Z,7.55
2018-10-16T01:58:18.081Z,7.52
2018-10-16T01:59:17.734Z,7.52
2018-10-16T02:00:17.707Z,7.53
2018-10-16T02:01:17.916Z,7.53
2018-10-16T02:02:17.695Z,7.49
2018-10-16T02:03:17.706Z,7.47
2018-10-16T02:04:17.761Z,7.42
2018-10-16T02:05:17.708Z,7.41
2018-10-16T02:06:17.774Z,7.41
2018-10-16T02:07:17.799Z,7.39
2018-10-16T02:08:17.726Z,7.34
2018-10-16T02:09:18.355Z,7.36
2018-10-16T02:10:17.828Z,7.33
2018-10-16T02:11:17.794Z,7.31
2018-10-16T02:12:17.688Z,7.33
2018-10-16T02:13:17.799Z,7.29
2018-10-16T02:14:17.753Z,7.28
2018-10-16T02:15:17.702Z,7.31
2018-10-16T02:16:17.916Z,7.33
2018-10-16T02:17:18.058Z,7.22
2018-10-16T02:18:18.135Z,7.3
2018-10-16T02:19:17.704Z,7.26
2018-10-16T02:20:17.726Z,7.26
2018-10-16T02:21:17.755Z,7.23
2018-10-16T02:22:17.903Z,7.21
2018-10-16T02:23:17.808Z,7.13
2018-10-16T02:24:17.833Z,7.1
2018-10-16T02:25:17.951Z,7.15
2018-10-16T02:26:17.798Z,7.14
2018-10-16T02:27:17.669Z,7.12
2018-10-16T02:28:17.707Z,7.09
2018-10-16T02:29:18.011Z,7.13
2018-10-16T02:30:18.003Z,7.09
2018-10-16T02:31:17.678Z,7.1
2018-10-16T02:32:17.659Z,7.03
2018-10-16T02:33:17.645Z,7.12
2018-10-16T02:34:17.675Z,7.07
2018-10-16T02:35:17.777Z,7.09
2018-10-16T02:36:17.741Z,7.07
2018-10-16T02:37:17.696Z,7.11
2018-10-16T02:38:17.624Z,7.12
2018-10-16T02:39:17.903Z,7.12
2018-10-16T02:40:17.688Z,7.13
2018-10-16T02:41:17.616Z,7.12
2018-10-16T02:42:17.681Z,7.08
2018-10-16T02:43:17.707Z,7.12
2018-10-16T02:44:17.750Z,7.11
2018-10-16T02:45:17.735Z,7.08
2018-10-16T02:46:17.677Z,7.01
2018-10-16T02:47:17.685Z,7.07
2018-10-16T02:48:17.713Z,7.11
2018-10-16T02:49:17.915Z,7.03
2018-10-16T02:50:17.654Z,7.08
2018-10-16T02:51:17.698Z,7.06
2018-10-16T02:52:17.714Z,6.98
2018-10-16T02:53:18.096Z,7.11
2018-10-16T02:54:17.735Z,7.08
2018-10-16T02:55:17.718Z,7.1
2018-10-16T02:56:17.724Z,7.01
2018-10-16T02:57:17.691Z,6.97
2018-10-16T02:58:17.882Z,7.09
2018-10-16T02:59:17.882Z,6.99
2018-10-16T03:00:17.741Z,7.02
2018-10-16T03:01:17.639Z,6.92
2018-10-16T03:02:17.852Z,7.02
2018-10-16T03:03:17.684Z,7.07
2018-10-16T03:04:17.633Z,6.99
2018-10-16T03:05:18.647Z,6.93
2018-10-16T03:06:17.711Z,6.99
2018-10-16T03:07:18.034Z,6.9
2018-10-16T03:08:17.689Z,6.93
2018-10-16T03:09:17.788Z,6.93
2018-10-16T03:10:17.734Z,7.05
2018-10-16T03:11:17.818Z,7.05
2018-10-16T03:12:17.781Z,6.96
2018-10-16T03:13:17.691Z,6.99
2018-10-16T03:14:17.729Z,6.9
2018-10-16T03:15:17.691Z,7.15
2018-10-16T03:16:17.848Z,7.16
2018-10-16T03:17:17.808Z,7.03
2018-10-16T03:18:17.769Z,6.98
2018-10-16T03:19:17.771Z,7.02
2018-10-16T03:20:18.124Z,7.16
2018-10-16T03:21:18.049Z,7.09
2018-10-16T03:22:18.098Z,7.09
2018-10-16T03:24:18.097Z,7.1
2018-10-16T03:25:17.699Z,7.04
2018-10-16T03:26:17.615Z,6.96
2018-10-16T03:27:17.622Z,6.96
2018-10-16T03:28:17.558Z,7.01
2018-10-16T03:29:17.669Z,7.03
2018-10-16T03:30:17.693Z,7
2018-10-16T03:31:17.544Z,7.01
2018-10-16T03:32:17.715Z,6.97
2018-10-16T03:33:17.674Z,7
2018-10-16T03:34:17.526Z,6.89
2018-10-16T03:35:17.484Z,6.94
2018-10-16T03:36:17.486Z,6.87
2018-10-16T03:37:17.623Z,6.9
2018-10-16T03:38:17.752Z,6.94
2018-10-16T03:39:17.506Z,6.88
2018-10-16T03:40:17.532Z,6.94
2018-10-16T03:41:17.544Z,6.87
2018-10-16T03:42:17.576Z,6.96
2018-10-16T03:43:17.514Z,6.96
2018-10-16T03:44:17.547Z,7.04
2018-10-16T03:45:17.497Z,7.07
2018-10-16T03:46:17.558Z,7.01
2018-10-16T03:47:17.490Z,6.98
2018-10-16T03:48:17.568Z,6.94
2018-10-16T03:49:17.694Z,7.02
2018-10-16T03:50:17.498Z,6.99
2018-10-16T03:51:17.521Z,6.98
2018-10-16T03:52:17.521Z,6.95
2018-10-16T03:53:18.070Z,6.92
2018-10-16T03:54:17.554Z,6.91
2018-10-16T03:55:17.488Z,7.01
2018-10-16T03:56:17.642Z,6.96
2018-10-16T03:57:17.927Z,7.08
2018-10-16T03:58:17.543Z,7.19
2018-10-16T03:59:17.493Z,7.22
2018-10-16T04:00:17.473Z,7.34
2018-10-16T04:01:17.501Z,7.35
2018-10-16T04:02:17.527Z,7.32
2018-10-16T04:03:17.617Z,7.32
2018-10-16T04:04:17.468Z,7.23
2018-10-16T04:05:17.457Z,7.26
2018-10-16T04:06:17.448Z,7.31
2018-10-16T04:07:17.679Z,7.34
2018-10-16T04:08:17.670Z,7.25
2018-10-16T04:09:17.469Z,7.24
2018-10-16T04:10:17.441Z,7.2
2018-10-16T04:11:17.475Z,7.18
2018-10-16T04:12:17.448Z,7.21
2018-10-16T04:13:17.503Z,7.14
2018-10-16T04:14:17.499Z,7.11
2018-10-16T04:15:17.577Z,7.19
2018-10-16T04:16:17.497Z,7.17
2018-10-16T04:17:17.553Z,7.16
2018-10-16T04:18:17.401Z,7.11
2018-10-16T04:19:17.533Z,7.16
2018-10-16T04:20:17.437Z,7.33
2018-10-16T04:21:17.798Z,7.37
2018-10-16T04:22:17.943Z,7.34
2018-10-16T04:23:17.504Z,7.32
2018-10-16T04:24:17.416Z,7.31
2018-10-16T04:25:17.548Z,7.25
2018-10-16T04:26:17.486Z,7.25
2018-10-16T04:27:17.464Z,7.19
2018-10-16T04:28:17.832Z,7.25
2018-10-16T04:29:17.960Z,7.2
2018-10-16T04:30:17.498Z,7.14
2018-10-16T04:31:17.491Z,7.11
2018-10-16T04:32:17.448Z,7.18
2018-10-16T04:33:17.473Z,7.21
2018-10-16T04:34:17.469Z,7.17
2018-10-16T04:35:17.447Z,7.17
2018-10-16T04:36:17.569Z,7.27
2018-10-16T04:37:17.548Z,7.26
2018-10-16T04:38:18.540Z,7.24
2018-10-16T04:39:17.546Z,7.19
2018-10-16T04:40:17.493Z,7.19
2018-10-16T04:41:17.697Z,7.13
2018-10-16T04:42:17.437Z,7.19
2018-10-16T04:43:17.458Z,7.17
2018-10-16T04:44:17.462Z,7.16
2018-10-16T04:46:17.410Z,7.13
2018-10-16T04:47:17.436Z,7.11
2018-10-16T04:48:17.432Z,7.1
2018-10-16T04:49:17.407Z,7.02
2018-10-16T04:50:17.502Z,7.09
2018-10-16T04:51:17.461Z,7.03
2018-10-16T04:52:17.433Z,7.08
2018-10-16T04:53:17.371Z,6.97
2018-10-16T04:54:17.712Z,7.01
2018-10-16T04:55:18.391Z,6.95
2018-10-16T04:56:17.474Z,7.04
2018-10-16T04:57:17.443Z,7.09
2018-10-16T04:58:17.353Z,7.08
2018-10-16T04:59:17.523Z,7.07
2018-10-16T05:00:17.361Z,7.05
2018-10-16T05:01:17.634Z,7.07
2018-10-16T05:02:17.413Z,7.06
2018-10-16T05:03:17.381Z,7.09
2018-10-16T05:04:18.557Z,6.99
2018-10-16T05:05:17.431Z,7.05
2018-10-16T05:07:17.405Z,6.94
2018-10-16T05:08:17.405Z,6.95
2018-10-16T05:09:17.434Z,6.95
2018-10-16T05:10:17.493Z,6.97
2018-10-16T05:11:17.698Z,7
2018-10-16T05:12:17.351Z,7.04
2018-10-16T05:13:18.248Z,7.02
2018-10-16T05:14:17.447Z,7.06
2018-10-16T05:15:17.681Z,7.16
2018-10-16T05:16:17.771Z,7.1
2018-10-16T05:17:17.545Z,7.14
2018-10-16T05:18:17.404Z,7.04
2018-10-16T05:19:18.771Z,7
2018-10-16T05:20:17.479Z,6.86
2018-10-16T05:21:17.370Z,6.84
2018-10-16T05:22:17.475Z,6.74
2018-10-16T05:23:17.758Z,6.57
2018-10-16T05:24:17.401Z,6.45
2018-10-16T05:25:17.425Z,6.41
2018-10-16T05:26:17.429Z,6.36
2018-10-16T05:27:17.560Z,6.24
2018-10-16T05:28:17.648Z,6.38
2018-10-16T05:29:17.430Z,6.31
2018-10-16T05:30:17.352Z,6.16
2018-10-16T05:31:18.528Z,6.32
2018-10-16T05:32:17.647Z,6.32
2018-10-16T05:33:41.754Z,6.31
2018-10-16T05:34:41.786Z,6.29
2018-10-16T05:35:41.841Z,6.27
2018-10-16T05:36:41.683Z,6.21
2018-10-16T05:37:41.729Z,6.23
2018-10-16T05:38:41.694Z,6.29
2018-10-16T05:39:42.083Z,6.32
2018-10-16T05:40:41.668Z,6.28
2018-10-16T05:41:41.725Z,6.28
2018-10-16T05:42:41.740Z,6.33
2018-10-16T05:43:41.712Z,6.44
2018-10-16T05:44:42.055Z,6.46
2018-10-16T05:45:41.710Z,6.5
2018-10-16T05:46:41.895Z,6.49
2018-10-16T05:47:41.846Z,6.42
2018-10-16T05:48:41.828Z,6.49
2018-10-16T05:49:41.733Z,6.48
2018-10-16T05:50:41.867Z,6.47
2018-10-16T05:51:42.108Z,6.5
2018-10-16T05:52:41.850Z,6.49
2018-10-16T05:53:41.699Z,6.51
2018-10-16T05:54:41.731Z,6.53
2018-10-16T05:55:41.879Z,6.51
2018-10-16T05:56:41.785Z,6.51
2018-10-16T05:57:41.888Z,6.55
2018-10-16T05:58:41.792Z,6.55
2018-10-16T05:59:41.844Z,6.56
2018-10-16T06:00:41.670Z,6.59
2018-10-16T06:01:41.744Z,6.62
2018-10-16T06:02:42.232Z,6.62
2018-10-16T06:03:41.700Z,6.66
2018-10-16T06:04:41.694Z,6.7
2018-10-16T06:05:42.237Z,6.63
2018-10-16T06:06:41.715Z,6.7
2018-10-16T06:07:41.716Z,6.71
2018-10-16T06:08:41.805Z,6.67
2018-10-16T06:09:41.673Z,6.75
2018-10-16T06:10:41.929Z,6.72
2018-10-16T06:11:41.865Z,6.69
2018-10-16T06:12:41.698Z,6.73
2018-10-16T06:13:41.763Z,6.68
2018-10-16T06:14:41.892Z,6.7
2018-10-16T06:15:41.639Z,6.68
2018-10-16T06:16:41.647Z,6.68
2018-10-16T06:17:41.628Z,6.69
2018-10-16T06:18:42.080Z,6.68
2018-10-16T06:19:41.754Z,6.74
2018-10-16T06:20:41.702Z,6.77
2018-10-16T06:21:41.822Z,6.71
2018-10-16T06:22:41.719Z,6.67
2018-10-16T06:23:41.668Z,6.63
2018-10-16T06:24:41.648Z,6.69
2018-10-16T06:25:41.682Z,6.68
2018-10-16T06:26:41.992Z,6.68
2018-10-16T06:27:42.220Z,6.77
2018-10-16T06:28:41.741Z,6.87
2018-10-16T06:29:41.785Z,6.96
2018-10-16T06:30:42.025Z,7.03
2018-10-16T06:31:41.655Z,6.95
2018-10-16T06:32:41.759Z,6.92
2018-10-16T06:33:41.853Z,6.88
2018-10-16T06:34:41.832Z,6.87
2018-10-16T06:35:41.723Z,6.9
2018-10-16T06:36:41.787Z,6.9
2018-10-16T06:37:42.000Z,6.93
2018-10-16T06:38:41.683Z,6.95
2018-10-16T06:39:41.674Z,6.92
2018-10-16T06:40:42.425Z,6.91
2018-10-16T06:41:42.196Z,6.87
2018-10-16T06:42:41.894Z,6.98
2018-10-16T06:43:42.025Z,6.98
2018-10-16T06:44:42.053Z,7
2018-10-16T06:45:41.668Z,6.97
2018-10-16T06:46:42.922Z,7.03
2018-10-16T06:47:42.658Z,7.13
2018-10-16T06:48:44.934Z,7.06
2018-10-16T06:49:41.619Z,7.06
2018-10-16T06:50:41.588Z,7.12
2018-10-16T06:51:41.581Z,7.21
2018-10-16T06:52:41.631Z,7.2
2018-10-16T06:53:41.650Z,7.1
2018-10-16T06:54:41.976Z,7.18
2018-10-16T06:55:41.570Z,7.27
2018-10-16T06:56:41.653Z,7.23
2018-10-16T06:57:41.632Z,7.24
2018-10-16T06:58:41.601Z,7.36
2018-10-16T06:59:41.636Z,7.34
2018-10-16T07:00:41.635Z,7.36
2018-10-16T07:01:41.611Z,7.35
2018-10-16T07:02:41.598Z,7.45
2018-10-16T07:03:41.578Z,7.49
2018-10-16T07:04:41.598Z,7.51
2018-10-16T07:05:41.612Z,7.49
2018-10-16T07:06:41.880Z,7.49
2018-10-16T07:07:41.629Z,7.56
2018-10-16T07:08:41.870Z,7.68
2018-10-16T07:09:41.875Z,7.6
2018-10-16T07:10:41.600Z,7.61
2018-10-16T07:11:41.683Z,7.62
2018-10-16T07:12:41.552Z,7.61
2018-10-16T07:13:41.566Z,7.7
2018-10-16T07:14:41.730Z,7.61
2018-10-16T07:15:41.692Z,7.65
2018-10-16T07:17:41.562Z,7.74
2018-10-16T07:18:41.610Z,7.81
2018-10-16T07:19:41.626Z,7.84
2018-10-16T07:20:41.737Z,7.78
2018-10-16T07:21:42.286Z,7.79
2018-10-16T07:22:41.607Z,7.81
2018-10-16T07:23:42.006Z,7.77
2018-10-16T07:24:41.624Z,7.83
2018-10-16T07:25:41.643Z,7.81
2018-10-16T07:26:41.616Z,7.98
2018-10-16T07:27:41.765Z,7.89
2018-10-16T07:28:41.604Z,7.92
2018-10-16T07:29:41.544Z,7.9
2018-10-16T07:30:41.720Z,7.96
2018-10-16T07:31:41.598Z,8.06
2018-10-16T07:32:41.835Z,7.98
2018-10-16T07:33:41.668Z,8.06
2018-10-16T07:34:41.622Z,8.03
2018-10-16T07:35:41.979Z,8.11
2018-10-16T07:36:41.930Z,8.19
2018-10-16T07:37:41.899Z,8.18
2018-10-16T07:38:41.892Z,8.15
2018-10-16T07:39:41.894Z,8.2
2018-10-16T07:40:41.558Z,8.27
2018-10-16T07:41:41.585Z,8.31
2018-10-16T07:42:41.669Z,8.32
2018-10-16T07:43:41.527Z,8.39
2018-10-16T07:44:41.680Z,8.38
2018-10-16T07:45:41.534Z,8.41
2018-10-16T07:46:41.509Z,8.46
2018-10-16T07:47:41.586Z,8.47
2018-10-16T07:48:42.871Z,8.54
2018-10-16T07:49:41.530Z,8.52
2018-10-16T07:50:41.586Z,8.53
2018-10-16T07:51:41.525Z,8.52
2018-10-16T07:52:41.529Z,8.56
2018-10-16T07:53:41.611Z,8.65
2018-10-16T07:54:41.584Z,8.66
2018-10-16T07:55:41.776Z,8.86
2018-10-16T07:56:41.591Z,8.95
2018-10-16T07:57:41.747Z,8.91
2018-10-16T07:58:41.579Z,8.91
2018-10-16T07:59:41.687Z,8.85
2018-10-16T08:00:41.702Z,8.86
2018-10-16T08:01:41.909Z,8.9
2018-10-16T08:02:41.642Z,8.93
2018-10-16T08:03:41.594Z,8.91
2018-10-16T08:04:41.523Z,8.97
2018-10-16T08:05:41.588Z,9
2018-10-16T08:06:41.765Z,9
2018-10-16T08:07:41.531Z,9.07
2018-10-16T08:08:41.666Z,9.15
2018-10-16T08:09:41.612Z,9.23
2018-10-16T08:11:41.701Z,9.24
2018-10-16T08:12:42.220Z,9.22
2018-10-16T08:13:41.694Z,9.32
2018-10-16T08:14:41.596Z,9.34
2018-10-16T08:15:41.611Z,9.45
2018-10-16T08:16:41.638Z,9.44
2018-10-16T08:17:41.550Z,9.47
2018-10-16T08:18:41.733Z,9.55
2018-10-16T08:19:41.581Z,9.57
2018-10-16T08:20:41.482Z,9.57
2018-10-16T08:21:41.977Z,9.61
2018-10-16T08:22:41.531Z,9.66
2018-10-16T08:23:41.533Z,9.64
2018-10-16T08:24:41.582Z,9.64
2018-10-16T08:25:41.497Z,9.6
2018-10-16T08:26:41.662Z,9.66
2018-10-16T08:27:41.524Z,9.7
2018-10-16T08:29:41.471Z,9.68
2018-10-16T08:30:42.014Z,9.76
2018-10-16T08:31:41.466Z,9.76
2018-10-16T08:32:41.472Z,9.74
2018-10-16T08:33:41.453Z,9.74
2018-10-16T08:34:41.531Z,9.57
2018-10-16T08:35:41.673Z,9.52
2018-10-16T08:36:42.155Z,9.57
2018-10-16T08:37:41.453Z,9.58
2018-10-16T08:38:41.433Z,9.55
2018-10-16T08:39:41.460Z,9.56
2018-10-16T08:40:41.476Z,9.54
2018-10-16T08:41:41.738Z,9.56
2018-10-16T08:42:41.881Z,9.66
2018-10-16T08:43:41.494Z,9.62
2018-10-16T08:44:42.083Z,9.63
2018-10-16T08:45:41.619Z,9.63
2018-10-16T08:46:41.579Z,9.69
2018-10-16T08:47:42.550Z,9.65
2018-10-16T08:48:41.736Z,9.6
2018-10-16T08:49:41.592Z,9.56
2018-10-16T08:50:41.487Z,9.48
2018-10-16T08:51:41.456Z,9.54
2018-10-16T08:52:41.449Z,9.49
2018-10-16T08:53:41.670Z,9.53
2018-10-16T08:54:41.639Z,9.52
2018-10-16T08:55:41.581Z,9.54
2018-10-16T08:56:41.492Z,9.38
2018-10-16T08:57:41.489Z,9.47
2018-10-16T08:58:41.494Z,9.55
2018-10-16T08:59:41.461Z,9.57
2018-10-16T09:00:41.519Z,9.64
2018-10-16T09:01:41.523Z,9.6
2018-10-16T09:02:41.594Z,9.64
2018-10-16T09:03:41.470Z,9.44
2018-10-16T09:04:41.827Z,9.58
2018-10-16T09:05:41.443Z,9.64
2018-10-16T09:06:41.902Z,9.65
2018-10-16T09:07:41.448Z,9.41
2018-10-16T09:08:41.671Z,9.42
2018-10-16T09:09:41.504Z,9.46
2018-10-16T09:10:41.691Z,9.49
2018-10-16T09:11:41.558Z,9.43
2018-10-16T09:12:41.422Z,9.44
2018-10-16T09:13:41.455Z,9.39
2018-10-16T09:14:41.482Z,9.48
2018-10-16T09:15:41.469Z,9.4
2018-10-16T09:16:41.437Z,9.42
2018-10-16T09:17:41.499Z,9.52
2018-10-16T09:18:41.509Z,9.55
2018-10-16T09:19:41.816Z,9.48
2018-10-16T09:20:41.491Z,9.49
2018-10-16T09:21:41.421Z,9.55
2018-10-16T09:22:41.388Z,9.63
2018-10-16T09:23:41.434Z,9.74
2018-10-16T09:24:42.129Z,9.74
2018-10-16T09:25:41.874Z,9.66
2018-10-16T09:26:41.448Z,9.54
2018-10-16T09:27:41.591Z,9.48
2018-10-16T09:28:41.367Z,9.44
2018-10-16T09:29:41.387Z,9.47
2018-10-16T09:30:41.915Z,9.42
2018-10-16T09:31:41.410Z,9.31
2018-10-16T09:32:41.408Z,9.3
2018-10-16T09:33:41.728Z,9.35
2018-10-16T09:34:41.376Z,9.53
2018-10-16T09:35:41.383Z,9.49
2018-10-16T09:36:41.436Z,9.46
2018-10-16T09:37:42.760Z,9.43
2018-10-16T09:38:41.666Z,9.54
2018-10-16T09:39:41.442Z,9.66
2018-10-16T09:40:41.442Z,9.63
2018-10-16T09:41:41.436Z,9.56
2018-10-16T09:42:41.579Z,9.49
2018-10-16T09:43:41.569Z,9.67
2018-10-16T09:44:41.585Z,9.86
2018-10-16T09:45:41.610Z,9.8
2018-10-16T09:46:41.604Z,9.74
2018-10-16T09:47:42.294Z,9.72
2018-10-16T09:48:41.743Z,9.88
2018-10-16T09:49:42.115Z,9.87
2018-10-16T09:50:41.518Z,9.81
2018-10-16T09:51:41.440Z,9.9
2018-10-16T09:52:41.825Z,9.68
2018-10-16T09:53:41.381Z,9.46
2018-10-16T09:54:41.360Z,9.46
2018-10-16T09:55:41.473Z,9.51
2018-10-16T09:56:41.485Z,9.35
2018-10-16T09:57:41.775Z,9.32
2018-10-16T09:58:41.362Z,9.31
2018-10-16T09:59:41.478Z,9.58
2018-10-16T10:00:41.565Z,9.53
2018-10-16T10:01:41.496Z,9.53
2018-10-16T10:02:41.512Z,9.43
2018-10-16T10:03:41.510Z,9.54
2018-10-16T10:04:41.509Z,9.79
2018-10-16T10:05:41.418Z,9.95
2018-10-16T10:06:41.431Z,9.97
2018-10-16T10:07:41.443Z,9.95
2018-10-16T10:08:41.541Z,9.85
2018-10-16T10:09:41.444Z,9.8
2018-10-16T10:10:41.338Z,9.69
2018-10-16T10:11:41.388Z,9.56
2018-10-16T10:12:41.568Z,9.75
2018-10-16T10:13:41.336Z,9.95
2018-10-16T10:14:41.527Z,9.84
2018-10-16T10:15:41.384Z,9.61
2018-10-16T10:16:41.621Z,9.4
2018-10-16T10:17:41.439Z,9.74
2018-10-16T10:18:41.492Z,9.57
2018-10-16T10:19:41.646Z,9.78
2018-10-16T10:20:41.450Z,9.66
2018-10-16T10:21:41.411Z,9.75
2018-10-16T10:22:41.350Z,9.65
2018-10-16T10:23:41.345Z,9.62
2018-10-16T10:24:41.317Z,9.65
2018-10-16T10:25:41.338Z,9.75
2018-10-16T10:26:41.344Z,9.69
2018-10-16T10:27:41.492Z,9.5
2018-10-16T10:28:41.389Z,9.5
2018-10-16T10:29:41.937Z,9.81
2018-10-16T10:30:41.701Z,9.45
2018-10-16T10:31:41.388Z,9.31
2018-10-16T10:32:41.629Z,9.29
2018-10-16T10:33:41.828Z,9.15
2018-10-16T10:34:41.335Z,9.22
2018-10-16T10:35:41.631Z,9.13
2018-10-16T10:36:41.497Z,9.18
2018-10-16T10:37:41.356Z,9.12
2018-10-16T10:38:41.385Z,9.37
2018-10-16T10:39:41.361Z,9.53
2018-10-16T10:40:41.448Z,9.53
2018-10-16T10:41:41.354Z,9.45
2018-10-16T10:42:41.465Z,9.65
2018-10-16T10:43:41.304Z,9.52
2018-10-16T10:44:41.407Z,9.71
2018-10-16T10:45:41.486Z,9.39
2018-10-16T10:46:41.293Z,9.53
2018-10-16T10:47:41.737Z,9.31
2018-10-16T10:48:41.336Z,9.03
2018-10-16T10:49:41.419Z,9.1
2018-10-16T10:50:43.671Z,9.09
2018-10-16T10:51:43.063Z,9.17
2018-10-16T10:52:41.434Z,9.22
2018-10-16T10:53:41.298Z,9.21
2018-10-16T10:54:41.296Z,9.25
2018-10-16T10:55:41.322Z,9.24
2018-10-16T10:56:41.918Z,9.26
2018-10-16T10:57:41.501Z,9.28
2018-10-16T10:58:41.483Z,9.33
2018-10-16T10:59:41.344Z,9.49
2018-10-16T11:00:41.349Z,9.35
2018-10-16T11:01:41.494Z,9.26
2018-10-16T11:02:41.311Z,9.35
2018-10-16T11:03:42.936Z,9.42
2018-10-16T11:04:41.418Z,9.52
2018-10-16T11:05:41.436Z,9.24
2018-10-16T11:06:41.254Z,9.19
2018-10-16T11:07:41.815Z,9.26
2018-10-16T11:08:41.418Z,9.16
2018-10-16T11:09:41.303Z,9.09
2018-10-16T11:10:41.403Z,9.13
2018-10-16T11:11:40.884Z,9.26
2018-10-16T11:12:41.467Z,9.37
2018-10-16T11:13:41.243Z,9.06
2018-10-16T11:14:41.622Z,9.23
2018-10-16T11:15:41.539Z,9.23
2018-10-16T11:16:41.259Z,9.13
2018-10-16T11:17:41.369Z,9.35
2018-10-16T11:18:41.350Z,9.5
2018-10-16T11:19:41.345Z,9.33
2018-10-16T11:20:41.417Z,9.2
2018-10-16T11:21:41.294Z,9.23
2018-10-16T11:22:41.396Z,9.23
2018-10-16T11:23:41.313Z,9.18
2018-10-16T11:24:41.461Z,9.34
2018-10-16T11:25:41.297Z,9.34
2018-10-16T11:26:41.392Z,9.57
2018-10-16T11:27:41.500Z,9.51
2018-10-16T11:28:41.309Z,9.5
2018-10-16T11:29:41.457Z,9.57
2018-10-16T11:30:41.561Z,9.44
2018-10-16T11:31:41.315Z,9.34
2018-10-16T11:32:41.285Z,9.34
2018-10-16T11:33:41.269Z,9.37
2018-10-16T11:34:41.355Z,9.65
2018-10-16T11:35:41.311Z,9.59
2018-10-16T11:36:41.632Z,9.7
2018-10-16T11:37:41.759Z,9.57
2018-10-16T11:38:41.283Z,9.57
2018-10-16T11:39:41.215Z,9.56
2018-10-16T11:40:41.228Z,9.73
2018-10-16T11:41:41.288Z,9.71
2018-10-16T11:42:41.599Z,9.75
2018-10-16T11:43:41.197Z,9.6
2018-10-16T11:44:41.510Z,9.58
2018-10-16T11:45:41.758Z,9.61
2018-10-16T11:46:41.440Z,9.73
2018-10-16T11:47:41.331Z,9.71
2018-10-16T11:48:41.353Z,9.81
2018-10-16T11:49:41.220Z,9.79
2018-10-16T11:50:41.562Z,9.77
2018-10-16T11:51:41.265Z,9.92
2018-10-16T11:52:41.567Z,10.04
2018-10-16T11:53:41.256Z,10.05
2018-10-16T11:54:41.714Z,10.18
2018-10-16T11:55:41.255Z,10.01
2018-10-16T11:56:41.332Z,9.99
2018-10-16T11:57:41.483Z,10.21
2018-10-16T11:58:41.261Z,9.89
2018-10-16T11:59:41.238Z,9.86
2018-10-16T12:00:41.408Z,10.02
2018-10-16T12:01:41.211Z,10.01
2018-10-16T12:02:41.729Z,10.02
2018-10-16T12:03:41.226Z,10.03
2018-10-16T12:04:41.329Z,9.98
2018-10-16T12:05:41.287Z,10.07
2018-10-16T12:06:41.280Z,10.17
2018-10-16T12:07:41.275Z,10.18
2018-10-16T12:08:41.613Z,10.02
2018-10-16T12:09:41.483Z,10.02
2018-10-16T12:10:41.608Z,9.99
2018-10-16T12:11:41.254Z,9.99
2018-10-16T12:12:41.247Z,10.07
2018-10-16T12:13:41.266Z,10.13
2018-10-16T12:14:41.454Z,10.08
2018-10-16T12:15:41.229Z,9.96
2018-10-16T12:16:41.963Z,9.99
2018-10-16T12:17:41.396Z,10.04
2018-10-16T12:18:41.240Z,10.25
2018-10-16T12:19:42.209Z,10.12
2018-10-16T12:20:41.320Z,10.03
2018-10-16T12:21:41.184Z,9.98
2018-10-16T12:22:41.350Z,10.07
2018-10-16T12:23:42.415Z,10.04
2018-10-16T12:24:41.365Z,10.32
2018-10-16T12:25:41.227Z,10.26
2018-10-16T12:26:41.237Z,10.07
2018-10-16T12:27:41.404Z,10.15
2018-10-16T12:28:41.184Z,10.11
2018-10-16T12:29:41.277Z,10.09
2018-10-16T12:30:41.408Z,10.18
2018-10-16T12:31:41.184Z,10.35
2018-10-16T12:32:41.368Z,10.17
2018-10-16T12:33:41.300Z,10.23
2018-10-16T12:34:41.307Z,10.28
2018-10-16T12:35:41.407Z,10.38
2018-10-16T12:36:41.208Z,10.26
2018-10-16T12:37:41.305Z,10.32
2018-10-16T12:38:41.340Z,10.35
2018-10-16T12:39:41.611Z,10.39
2018-10-16T12:40:41.375Z,10.42
2018-10-16T12:41:41.297Z,10.51
2018-10-16T12:42:41.573Z,10.49
2018-10-16T12:43:43.174Z,10.5
2018-10-16T12:44:41.209Z,10.59
2018-10-16T12:45:42.437Z,10.64
2018-10-16T12:46:41.179Z,10.51
2018-10-16T12:47:41.187Z,10.55
2018-10-16T12:48:41.305Z,10.53
2018-10-16T12:49:41.263Z,10.61
2018-10-16T12:50:41.323Z,10.68
2018-10-16T12:51:41.154Z,10.62
2018-10-16T12:52:41.273Z,10.44
2018-10-16T12:53:41.211Z,10.49
2018-10-16T12:54:41.168Z,10.66
2018-10-16T12:55:41.363Z,10.63
2018-10-16T12:56:41.631Z,10.71
2018-10-16T12:57:41.154Z,10.63
2018-10-16T12:58:41.162Z,10.69
2018-10-16T12:59:41.149Z,10.7
2018-10-16T13:00:41.317Z,10.71
2018-10-16T13:01:41.161Z,10.9
2018-10-16T13:02:41.196Z,10.72
2018-10-16T13:03:41.834Z,10.65
2018-10-16T13:04:41.438Z,10.6
2018-10-16T13:05:41.255Z,10.61
2018-10-16T13:06:41.771Z,10.75
2018-10-16T13:07:41.150Z,10.82
2018-10-16T13:08:41.334Z,10.75
2018-10-16T13:09:41.278Z,10.82
2018-10-16T13:10:41.340Z,10.71
2018-10-16T13:11:41.454Z,10.61
2018-10-16T13:12:41.198Z,10.54
2018-10-16T13:13:41.312Z,10.58
2018-10-16T13:14:41.501Z,10.69
2018-10-16T13:15:41.174Z,10.79
2018-10-16T13:16:41.600Z,10.71
2018-10-16T13:17:41.128Z,10.64
2018-10-16T13:18:41.196Z,10.69
2018-10-16T13:19:41.378Z,10.91
2018-10-16T13:20:41.212Z,10.78
2018-10-16T13:21:41.339Z,10.82
2018-10-16T13:22:41.235Z,10.81
2018-10-16T13:23:42.020Z,10.74
2018-10-16T13:24:41.579Z,10.7